Terminal Aerodrome Forecast
Issued by NWS Cleveland, OH

Home | Current Version | Previous Version | Graphics & Text | Print | Product List | Glossary On
Versions: 1 2 3 4 5 6 7 8 9 10 11 12 13 14 15 16 17 18 19 20 21 22 23 24 25 26 27 28 29 30
000
FTUS41 KCLE 292000 AAA
TAFCLE
TAF AMD
KCLE 292059Z 2921/3024 35006KT P6SM SKC
     FM300200 VRB05KT P6SM SCT100 BKN250
     FM300900 28005KT P6SM SCT015 BKN040 OVC100
     FM301200 29006KT 6SM -SHRA SCT006 OVC015
     FM301500 32006KT 6SM BR BKN006 OVC012
     FM301900 32006KT P6SM VCSH OVC012=

USA.gov is the U.S. government's official web portal to all federal, state and local government web resources and services.